sensor_id;sensor_type;location;lat;lon;timestamp;temperature;humidity
22006;DHT22;11167;46.988;15.470;2023-02-28T00:01:55;4.80;70.90
22006;DHT22;11167;46.988;15.470;2023-02-28T00:03:56;4.80;70.90
22006;DHT22;11167;46.988;15.470;2023-02-28T00:05:57;4.80;70.90
22006;DHT22;11167;46.988;15.470;2023-02-28T00:07:57;4.80;71.00
22006;DHT22;11167;46.988;15.470;2023-02-28T00:09:58;4.70;70.90
22006;DHT22;11167;46.988;15.470;2023-02-28T00:12:00;4.80;71.00
22006;DHT22;11167;46.988;15.470;2023-02-28T00:14:02;4.70;71.00
22006;DHT22;11167;46.988;15.470;2023-02-28T00:16:08;4.80;71.20
22006;DHT22;11167;46.988;15.470;2023-02-28T00:18:09;4.70;71.10
22006;DHT22;11167;46.988;15.470;2023-02-28T00:20:11;4.70;71.10
22006;DHT22;11167;46.988;15.470;2023-02-28T00:22:12;4.70;71.10
22006;DHT22;11167;46.988;15.470;2023-02-28T00:24:13;4.70;71.10
22006;DHT22;11167;46.988;15.470;2023-02-28T00:26:14;4.70;71.10
22006;DHT22;11167;46.988;15.470;2023-02-28T00:28:15;4.70;71.10
22006;DHT22;11167;46.988;15.470;2023-02-28T00:30:17;4.70;71.20
22006;DHT22;11167;46.988;15.470;2023-02-28T00:32:18;4.70;71.20
22006;DHT22;11167;46.988;15.470;2023-02-28T00:34:19;4.70;71.30
22006;DHT22;11167;46.988;15.470;2023-02-28T00:36:21;4.70;71.30
22006;DHT22;11167;46.988;15.470;2023-02-28T00:38:22;4.70;71.30
22006;DHT22;11167;46.988;15.470;2023-02-28T00:40:23;4.70;71.50
22006;DHT22;11167;46.988;15.470;2023-02-28T00:42:24;4.70;71.30
22006;DHT22;11167;46.988;15.470;2023-02-28T00:44:25;4.70;71.30
22006;DHT22;11167;46.988;15.470;2023-02-28T00:46:25;4.70;71.40
22006;DHT22;11167;46.988;15.470;2023-02-28T00:48:26;4.70;71.40
22006;DHT22;11167;46.988;15.470;2023-02-28T00:50:27;4.70;71.50
22006;DHT22;11167;46.988;15.470;2023-02-28T00:52:28;4.70;71.50
22006;DHT22;11167;46.988;15.470;2023-02-28T00:54:29;4.60;71.40
22006;DHT22;11167;46.988;15.470;2023-02-28T00:56:30;4.60;71.40
22006;DHT22;11167;46.988;15.470;2023-02-28T00:58:33;4.60;71.50
22006;DHT22;11167;46.988;15.470;2023-02-28T01:00:34;4.60;71.50
22006;DHT22;11167;46.988;15.470;2023-02-28T01:02:35;4.60;71.50
22006;DHT22;11167;46.988;15.470;2023-02-28T01:04:36;4.60;71.50
22006;DHT22;11167;46.988;15.470;2023-02-28T01:06:39;4.60;71.60
22006;DHT22;11167;46.988;15.470;2023-02-28T01:08:40;4.60;71.60
22006;DHT22;11167;46.988;15.470;2023-02-28T01:10:41;4.60;71.60
22006;DHT22;11167;46.988;15.470;2023-02-28T01:12:42;4.60;71.60
22006;DHT22;11167;46.988;15.470;2023-02-28T01:14:43;4.60;71.60
22006;DHT22;11167;46.988;15.470;2023-02-28T01:16:44;4.60;71.60
22006;DHT22;11167;46.988;15.470;2023-02-28T01:18:45;4.50;71.60
22006;DHT22;11167;46.988;15.470;2023-02-28T01:20:46;4.60;71.60
22006;DHT22;11167;46.988;15.470;2023-02-28T01:22:47;4.60;71.60
22006;DHT22;11167;46.988;15.470;2023-02-28T01:24:48;4.60;71.60
22006;DHT22;11167;46.988;15.470;2023-02-28T01:26:49;4.50;71.60
22006;DHT22;11167;46.988;15.470;2023-02-28T01:28:50;4.60;71.70
22006;DHT22;11167;46.988;15.470;2023-02-28T01:30:52;4.60;71.70
22006;DHT22;11167;46.988;15.470;2023-02-28T01:32:52;4.50;71.60
22006;DHT22;11167;46.988;15.470;2023-02-28T01:34:54;4.50;71.60
22006;DHT22;11167;46.988;15.470;2023-02-28T01:36:55;4.50;71.70
22006;DHT22;11167;46.988;15.470;2023-02-28T01:38:56;4.50;71.70
22006;DHT22;11167;46.988;15.470;2023-02-28T01:40:56;4.50;71.70
22006;DHT22;11167;46.988;15.470;2023-02-28T01:42:57;4.50;71.70
22006;DHT22;11167;46.988;15.470;2023-02-28T01:47:18;4.50;71.80
22006;DHT22;11167;46.988;15.470;2023-02-28T01:49:19;4.50;71.80
22006;DHT22;11167;46.988;15.470;2023-02-28T01:51:22;4.50;71.80
22006;DHT22;11167;46.988;15.470;2023-02-28T01:53:24;4.50;72.60
22006;DHT22;11167;46.988;15.470;2023-02-28T01:55:26;4.50;72.70
22006;DHT22;11167;46.988;15.470;2023-02-28T01:57:30;4.40;71.80
22006;DHT22;11167;46.988;15.470;2023-02-28T01:59:35;4.40;71.80
22006;DHT22;11167;46.988;15.470;2023-02-28T02:01:36;4.50;71.90
22006;DHT22;11167;46.988;15.470;2023-02-28T02:03:37;4.50;72.80
22006;DHT22;11167;46.988;15.470;2023-02-28T02:05:38;4.50;71.90
22006;DHT22;11167;46.988;15.470;2023-02-28T02:07:40;4.50;72.00
22006;DHT22;11167;46.988;15.470;2023-02-28T02:09:41;4.40;71.90
22006;DHT22;11167;46.988;15.470;2023-02-28T02:11:43;4.40;72.00
22006;DHT22;11167;46.988;15.470;2023-02-28T02:13:52;4.40;71.90
22006;DHT22;11167;46.988;15.470;2023-02-28T02:17:59;4.40;71.90
22006;DHT22;11167;46.988;15.470;2023-02-28T02:22:12;4.40;71.90
22006;DHT22;11167;46.988;15.470;2023-02-28T02:24:31;4.40;72.00
22006;DHT22;11167;46.988;15.470;2023-02-28T02:28:59;4.40;72.00
22006;DHT22;11167;46.988;15.470;2023-02-28T02:35:27;4.40;72.10
22006;DHT22;11167;46.988;15.470;2023-02-28T02:37:32;4.40;72.20
22006;DHT22;11167;46.988;15.470;2023-02-28T02:41:55;4.30;72.10
22006;DHT22;11167;46.988;15.470;2023-02-28T02:43:54;4.30;72.20
22006;DHT22;11167;46.988;15.470;2023-02-28T02:45:56;4.30;72.20
22006;DHT22;11167;46.988;15.470;2023-02-28T02:47:58;4.30;72.10
22006;DHT22;11167;46.988;15.470;2023-02-28T02:50:01;4.30;72.10
22006;DHT22;11167;46.988;15.470;2023-02-28T02:52:07;4.30;72.20
22006;DHT22;11167;46.988;15.470;2023-02-28T02:54:10;4.30;72.10
22006;DHT22;11167;46.988;15.470;2023-02-28T02:56:12;4.30;72.10
22006;DHT22;11167;46.988;15.470;2023-02-28T02:58:14;4.30;72.10
22006;DHT22;11167;46.988;15.470;2023-02-28T03:00:17;4.30;72.30
22006;DHT22;11167;46.988;15.470;2023-02-28T03:02:19;4.30;72.10
22006;DHT22;11167;46.988;15.470;2023-02-28T03:04:22;4.30;72.20
22006;DHT22;11167;46.988;15.470;2023-02-28T03:06:24;4.30;72.20
22006;DHT22;11167;46.988;15.470;2023-02-28T03:08:26;4.30;72.30
22006;DHT22;11167;46.988;15.470;2023-02-28T03:10:38;4.30;72.30
22006;DHT22;11167;46.988;15.470;2023-02-28T03:12:40;4.30;72.30
22006;DHT22;11167;46.988;15.470;2023-02-28T03:17:09;4.30;72.30
22006;DHT22;11167;46.988;15.470;2023-02-28T03:21:15;4.30;72.30
22006;DHT22;11167;46.988;15.470;2023-02-28T03:23:26;4.30;72.30
22006;DHT22;11167;46.988;15.470;2023-02-28T03:25:32;4.30;72.30
22006;DHT22;11167;46.988;15.470;2023-02-28T03:29:47;4.20;72.30
22006;DHT22;11167;46.988;15.470;2023-02-28T03:32:09;4.20;72.30
22006;DHT22;11167;46.988;15.470;2023-02-28T03:34:34;4.20;72.30
22006;DHT22;11167;46.988;15.470;2023-02-28T03:36:16;4.20;72.30
22006;DHT22;11167;46.988;15.470;2023-02-28T03:38:22;4.20;72.30
22006;DHT22;11167;46.988;15.470;2023-02-28T03:40:25;4.20;72.30
22006;DHT22;11167;46.988;15.470;2023-02-28T03:42:27;4.20;71.90
22006;DHT22;11167;46.988;15.470;2023-02-28T03:46:37;4.20;72.30
22006;DHT22;11167;46.988;15.470;2023-02-28T03:48:44;4.20;72.40
22006;DHT22;11167;46.988;15.470;2023-02-28T03:50:47;4.20;73.10
22006;DHT22;11167;46.988;15.470;2023-02-28T03:52:52;4.20;72.30
22006;DHT22;11167;46.988;15.470;2023-02-28T03:54:54;4.20;72.40
22006;DHT22;11167;46.988;15.470;2023-02-28T03:56:59;4.20;72.40
22006;DHT22;11167;46.988;15.470;2023-02-28T03:59:02;4.20;72.50
22006;DHT22;11167;46.988;15.470;2023-02-28T04:01:08;4.20;72.40
22006;DHT22;11167;46.988;15.470;2023-02-28T04:03:10;4.20;72.40
22006;DHT22;11167;46.988;15.470;2023-02-28T04:05:11;4.10;72.30
22006;DHT22;11167;46.988;15.470;2023-02-28T04:07:12;4.10;72.30
22006;DHT22;11167;46.988;15.470;2023-02-28T04:09:14;4.20;72.40
22006;DHT22;11167;46.988;15.470;2023-02-28T04:11:19;4.20;72.40
22006;DHT22;11167;46.988;15.470;2023-02-28T04:13:20;4.20;72.50
22006;DHT22;11167;46.988;15.470;2023-02-28T04:15:21;4.20;71.90
22006;DHT22;11167;46.988;15.470;2023-02-28T04:17:23;4.20;72.50
22006;DHT22;11167;46.988;15.470;2023-02-28T04:19:24;4.10;72.50
22006;DHT22;11167;46.988;15.470;2023-02-28T04:21:25;4.10;72.40
22006;DHT22;11167;46.988;15.470;2023-02-28T04:23:26;4.10;72.40
22006;DHT22;11167;46.988;15.470;2023-02-28T04:25:27;4.10;72.50
22006;DHT22;11167;46.988;15.470;2023-02-28T04:27:28;4.10;72.40
22006;DHT22;11167;46.988;15.470;2023-02-28T04:29:33;4.10;72.50
22006;DHT22;11167;46.988;15.470;2023-02-28T04:31:33;4.10;72.40
22006;DHT22;11167;46.988;15.470;2023-02-28T04:33:34;4.10;72.50
22006;DHT22;11167;46.988;15.470;2023-02-28T04:35:35;4.10;72.50
22006;DHT22;11167;46.988;15.470;2023-02-28T04:37:36;4.10;72.50
22006;DHT22;11167;46.988;15.470;2023-02-28T04:39:37;4.10;73.40
22006;DHT22;11167;46.988;15.470;2023-02-28T04:41:38;4.10;72.60
22006;DHT22;11167;46.988;15.470;2023-02-28T04:43:39;4.10;72.50
22006;DHT22;11167;46.988;15.470;2023-02-28T04:45:40;4.10;72.50
22006;DHT22;11167;46.988;15.470;2023-02-28T04:47:41;4.10;72.50
22006;DHT22;11167;46.988;15.470;2023-02-28T04:49:42;4.10;72.60
22006;DHT22;11167;46.988;15.470;2023-02-28T04:51:43;4.10;72.60
22006;DHT22;11167;46.988;15.470;2023-02-28T04:53:44;4.10;72.60
22006;DHT22;11167;46.988;15.470;2023-02-28T04:55:45;4.10;72.60
22006;DHT22;11167;46.988;15.470;2023-02-28T04:57:46;4.10;72.60
22006;DHT22;11167;46.988;15.470;2023-02-28T04:59:47;4.10;72.60
22006;DHT22;11167;46.988;15.470;2023-02-28T05:01:48;4.10;72.70
22006;DHT22;11167;46.988;15.470;2023-02-28T05:03:50;4.10;72.70
22006;DHT22;11167;46.988;15.470;2023-02-28T05:05:51;4.10;72.70
22006;DHT22;11167;46.988;15.470;2023-02-28T05:07:52;4.00;72.70
22006;DHT22;11167;46.988;15.470;2023-02-28T05:09:54;4.10;72.70
22006;DHT22;11167;46.988;15.470;2023-02-28T05:11:55;4.10;73.60
22006;DHT22;11167;46.988;15.470;2023-02-28T05:13:56;4.00;72.80
22006;DHT22;11167;46.988;15.470;2023-02-28T05:15:57;4.10;72.80
22006;DHT22;11167;46.988;15.470;2023-02-28T05:17:58;4.10;72.90
22006;DHT22;11167;46.988;15.470;2023-02-28T05:19:59;4.10;72.90
22006;DHT22;11167;46.988;15.470;2023-02-28T05:21:59;4.00;72.80
22006;DHT22;11167;46.988;15.470;2023-02-28T05:24:01;4.10;72.90
22006;DHT22;11167;46.988;15.470;2023-02-28T05:26:03;4.00;72.90
22006;DHT22;11167;46.988;15.470;2023-02-28T05:28:03;4.00;73.00
22006;DHT22;11167;46.988;15.470;2023-02-28T05:30:05;4.10;72.90
22006;DHT22;11167;46.988;15.470;2023-02-28T05:32:06;4.00;72.90
22006;DHT22;11167;46.988;15.470;2023-02-28T05:34:07;4.00;73.10
22006;DHT22;11167;46.988;15.470;2023-02-28T05:36:08;4.00;73.00
22006;DHT22;11167;46.988;15.470;2023-02-28T05:38:09;4.00;73.00
22006;DHT22;11167;46.988;15.470;2023-02-28T05:40:10;4.00;73.10
22006;DHT22;11167;46.988;15.470;2023-02-28T05:42:12;4.00;73.00
22006;DHT22;11167;46.988;15.470;2023-02-28T05:44:12;4.00;73.00
22006;DHT22;11167;46.988;15.470;2023-02-28T05:46:14;4.00;73.10
22006;DHT22;11167;46.988;15.470;2023-02-28T05:48:15;4.00;73.10
22006;DHT22;11167;46.988;15.470;2023-02-28T05:50:16;4.00;73.10
22006;DHT22;11167;46.988;15.470;2023-02-28T05:52:17;4.00;73.10
22006;DHT22;11167;46.988;15.470;2023-02-28T05:54:18;4.00;73.10
22006;DHT22;11167;46.988;15.470;2023-02-28T05:56:18;4.00;73.10
22006;DHT22;11167;46.988;15.470;2023-02-28T05:58:19;4.00;73.10
22006;DHT22;11167;46.988;15.470;2023-02-28T06:00:20;4.00;73.10
22006;DHT22;11167;46.988;15.470;2023-02-28T06:02:21;4.00;73.20
22006;DHT22;11167;46.988;15.470;2023-02-28T06:04:22;4.00;73.20
22006;DHT22;11167;46.988;15.470;2023-02-28T06:06:23;4.00;73.20
22006;DHT22;11167;46.988;15.470;2023-02-28T06:08:24;4.00;73.20
22006;DHT22;11167;46.988;15.470;2023-02-28T06:10:25;4.00;73.30
22006;DHT22;11167;46.988;15.470;2023-02-28T06:12:26;4.00;73.30
22006;DHT22;11167;46.988;15.470;2023-02-28T06:14:27;4.00;73.30
22006;DHT22;11167;46.988;15.470;2023-02-28T06:16:29;4.00;73.30
22006;DHT22;11167;46.988;15.470;2023-02-28T06:18:30;4.00;73.30
22006;DHT22;11167;46.988;15.470;2023-02-28T06:20:31;4.00;73.30
22006;DHT22;11167;46.988;15.470;2023-02-28T06:22:32;4.00;73.30
22006;DHT22;11167;46.988;15.470;2023-02-28T06:24:32;4.00;73.30
22006;DHT22;11167;46.988;15.470;2023-02-28T06:26:33;4.00;73.30
22006;DHT22;11167;46.988;15.470;2023-02-28T06:28:34;4.00;73.40
22006;DHT22;11167;46.988;15.470;2023-02-28T06:30:36;4.00;73.30
22006;DHT22;11167;46.988;15.470;2023-02-28T06:32:37;4.00;73.30
22006;DHT22;11167;46.988;15.470;2023-02-28T06:34:38;4.00;73.40
22006;DHT22;11167;46.988;15.470;2023-02-28T06:36:40;4.00;73.40
22006;DHT22;11167;46.988;15.470;2023-02-28T06:38:41;4.00;73.40
22006;DHT22;11167;46.988;15.470;2023-02-28T06:40:42;4.00;73.40
22006;DHT22;11167;46.988;15.470;2023-02-28T06:42:52;4.00;73.40
22006;DHT22;11167;46.988;15.470;2023-02-28T06:44:53;4.00;73.40
22006;DHT22;11167;46.988;15.470;2023-02-28T06:46:54;4.00;73.40
22006;DHT22;11167;46.988;15.470;2023-02-28T06:48:55;4.00;73.40
22006;DHT22;11167;46.988;15.470;2023-02-28T06:51:03;4.00;73.40
22006;DHT22;11167;46.988;15.470;2023-02-28T06:53:04;4.00;73.40
22006;DHT22;11167;46.988;15.470;2023-02-28T06:55:06;4.00;73.60
22006;DHT22;11167;46.988;15.470;2023-02-28T06:57:07;4.00;73.40
22006;DHT22;11167;46.988;15.470;2023-02-28T06:59:08;4.00;73.40
22006;DHT22;11167;46.988;15.470;2023-02-28T07:01:09;4.00;73.40
22006;DHT22;11167;46.988;15.470;2023-02-28T07:03:10;4.00;73.40
22006;DHT22;11167;46.988;15.470;2023-02-28T07:05:11;3.90;73.40
22006;DHT22;11167;46.988;15.470;2023-02-28T07:07:12;4.00;73.40
22006;DHT22;11167;46.988;15.470;2023-02-28T07:09:13;4.00;73.40
22006;DHT22;11167;46.988;15.470;2023-02-28T07:11:14;4.00;73.40
22006;DHT22;11167;46.988;15.470;2023-02-28T07:13:15;3.90;73.40
22006;DHT22;11167;46.988;15.470;2023-02-28T07:15:16;3.90;73.40
22006;DHT22;11167;46.988;15.470;2023-02-28T07:17:17;4.00;73.40
22006;DHT22;11167;46.988;15.470;2023-02-28T07:19:18;3.90;73.30
22006;DHT22;11167;46.988;15.470;2023-02-28T07:21:19;4.00;73.40
22006;DHT22;11167;46.988;15.470;2023-02-28T07:23:20;3.90;73.40
22006;DHT22;11167;46.988;15.470;2023-02-28T07:25:22;3.90;73.30
22006;DHT22;11167;46.988;15.470;2023-02-28T07:27:22;4.00;73.40
22006;DHT22;11167;46.988;15.470;2023-02-28T07:29:26;3.90;73.40
22006;DHT22;11167;46.988;15.470;2023-02-28T07:31:27;3.90;73.30
22006;DHT22;11167;46.988;15.470;2023-02-28T07:33:28;3.90;73.30
22006;DHT22;11167;46.988;15.470;2023-02-28T07:35:29;3.90;73.30
22006;DHT22;11167;46.988;15.470;2023-02-28T07:37:30;4.00;73.40
22006;DHT22;11167;46.988;15.470;2023-02-28T07:39:32;3.90;73.30
22006;DHT22;11167;46.988;15.470;2023-02-28T07:41:32;4.00;73.30
22006;DHT22;11167;46.988;15.470;2023-02-28T07:45:44;3.90;73.30
22006;DHT22;11167;46.988;15.470;2023-02-28T07:47:45;4.00;73.40
22006;DHT22;11167;46.988;15.470;2023-02-28T07:49:46;3.90;73.30
22006;DHT22;11167;46.988;15.470;2023-02-28T07:51:47;3.90;73.30
22006;DHT22;11167;46.988;15.470;2023-02-28T07:53:49;4.00;73.30
22006;DHT22;11167;46.988;15.470;2023-02-28T07:55:50;3.90;73.20
22006;DHT22;11167;46.988;15.470;2023-02-28T07:57:51;3.90;73.20
22006;DHT22;11167;46.988;15.470;2023-02-28T07:59:52;4.00;73.30
22006;DHT22;11167;46.988;15.470;2023-02-28T08:01:53;3.90;73.20
22006;DHT22;11167;46.988;15.470;2023-02-28T08:03:54;3.90;73.20
22006;DHT22;11167;46.988;15.470;2023-02-28T08:05:58;3.90;73.20
22006;DHT22;11167;46.988;15.470;2023-02-28T08:07:59;3.90;73.20
22006;DHT22;11167;46.988;15.470;2023-02-28T08:10:00;4.00;73.30
22006;DHT22;11167;46.988;15.470;2023-02-28T08:12:01;4.00;73.30
22006;DHT22;11167;46.988;15.470;2023-02-28T08:14:02;4.00;73.30
22006;DHT22;11167;46.988;15.470;2023-02-28T08:16:03;3.90;73.20
22006;DHT22;11167;46.988;15.470;2023-02-28T08:18:04;4.00;73.30
22006;DHT22;11167;46.988;15.470;2023-02-28T08:20:05;3.90;73.10
22006;DHT22;11167;46.988;15.470;2023-02-28T08:22:06;4.00;73.20
22006;DHT22;11167;46.988;15.470;2023-02-28T08:24:08;3.90;73.10
22006;DHT22;11167;46.988;15.470;2023-02-28T08:26:09;4.00;73.30
22006;DHT22;11167;46.988;15.470;2023-02-28T08:28:09;4.00;73.20
22006;DHT22;11167;46.988;15.470;2023-02-28T08:30:11;4.00;73.20
22006;DHT22;11167;46.988;15.470;2023-02-28T08:32:12;4.00;73.20
22006;DHT22;11167;46.988;15.470;2023-02-28T08:34:14;4.00;73.30
22006;DHT22;11167;46.988;15.470;2023-02-28T08:36:15;4.00;73.20
22006;DHT22;11167;46.988;15.470;2023-02-28T08:38:16;4.00;73.30
22006;DHT22;11167;46.988;15.470;2023-02-28T08:40:17;4.00;73.20
22006;DHT22;11167;46.988;15.470;2023-02-28T08:42:21;4.00;73.20
22006;DHT22;11167;46.988;15.470;2023-02-28T08:44:21;4.00;73.20
22006;DHT22;11167;46.988;15.470;2023-02-28T08:46:22;4.00;73.20
22006;DHT22;11167;46.988;15.470;2023-02-28T08:48:24;4.00;73.10
22006;DHT22;11167;46.988;15.470;2023-02-28T08:50:25;4.00;73.20
22006;DHT22;11167;46.988;15.470;2023-02-28T08:52:26;4.00;73.20
22006;DHT22;11167;46.988;15.470;2023-02-28T08:54:27;4.00;74.00
22006;DHT22;11167;46.988;15.470;2023-02-28T08:56:29;4.00;73.20
22006;DHT22;11167;46.988;15.470;2023-02-28T08:58:31;4.00;73.20
22006;DHT22;11167;46.988;15.470;2023-02-28T09:00:32;4.00;73.10
22006;DHT22;11167;46.988;15.470;2023-02-28T09:02:33;4.00;73.20
22006;DHT22;11167;46.988;15.470;2023-02-28T09:04:34;4.00;73.10
22006;DHT22;11167;46.988;15.470;2023-02-28T09:06:35;4.00;73.10
22006;DHT22;11167;46.988;15.470;2023-02-28T09:08:36;4.00;73.20
22006;DHT22;11167;46.988;15.470;2023-02-28T09:10:36;4.10;73.20
22006;DHT22;11167;46.988;15.470;2023-02-28T09:12:37;4.00;73.10
22006;DHT22;11167;46.988;15.470;2023-02-28T09:14:38;4.10;73.20
22006;DHT22;11167;46.988;15.470;2023-02-28T09:16:39;4.00;73.10
22006;DHT22;11167;46.988;15.470;2023-02-28T09:18:40;4.00;73.10
22006;DHT22;11167;46.988;15.470;2023-02-28T09:20:41;4.10;73.20
22006;DHT22;11167;46.988;15.470;2023-02-28T09:22:42;4.10;73.10
22006;DHT22;11167;46.988;15.470;2023-02-28T09:24:43;4.10;73.10
22006;DHT22;11167;46.988;15.470;2023-02-28T09:26:45;4.10;73.10
22006;DHT22;11167;46.988;15.470;2023-02-28T09:28:46;4.10;73.10
22006;DHT22;11167;46.988;15.470;2023-02-28T09:30:48;4.10;73.00
22006;DHT22;11167;46.988;15.470;2023-02-28T09:32:49;4.10;73.00
22006;DHT22;11167;46.988;15.470;2023-02-28T09:34:51;4.10;73.10
22006;DHT22;11167;46.988;15.470;2023-02-28T09:36:52;4.10;73.00
22006;DHT22;11167;46.988;15.470;2023-02-28T09:38:55;4.10;73.00
22006;DHT22;11167;46.988;15.470;2023-02-28T09:40:57;4.10;73.00
22006;DHT22;11167;46.988;15.470;2023-02-28T09:42:58;4.10;73.00
22006;DHT22;11167;46.988;15.470;2023-02-28T09:45:00;4.10;73.00
22006;DHT22;11167;46.988;15.470;2023-02-28T09:49:18;4.10;72.90
22006;DHT22;11167;46.988;15.470;2023-02-28T09:53:26;4.10;72.90
22006;DHT22;11167;46.988;15.470;2023-02-28T09:55:37;4.20;72.90
22006;DHT22;11167;46.988;15.470;2023-02-28T09:57:37;4.20;72.90
22006;DHT22;11167;46.988;15.470;2023-02-28T09:59:42;4.20;72.90
22006;DHT22;11167;46.988;15.470;2023-02-28T10:05:59;4.20;72.80
22006;DHT22;11167;46.988;15.470;2023-02-28T10:10:19;4.20;72.80
22006;DHT22;11167;46.988;15.470;2023-02-28T10:12:17;4.20;72.80
22006;DHT22;11167;46.988;15.470;2023-02-28T10:14:24;4.20;72.90
22006;DHT22;11167;46.988;15.470;2023-02-28T10:16:31;4.20;73.40
22006;DHT22;11167;46.988;15.470;2023-02-28T10:18:30;4.20;73.60
22006;DHT22;11167;46.988;15.470;2023-02-28T10:20:35;4.20;72.80
22006;DHT22;11167;46.988;15.470;2023-02-28T10:24:50;4.20;72.80
22006;DHT22;11167;46.988;15.470;2023-02-28T10:26:53;4.20;72.70
22006;DHT22;11167;46.988;15.470;2023-02-28T10:28:55;4.20;72.70
22006;DHT22;11167;46.988;15.470;2023-02-28T10:30:56;4.20;72.70
22006;DHT22;11167;46.988;15.470;2023-02-28T10:32:58;4.30;72.80
22006;DHT22;11167;46.988;15.470;2023-02-28T10:35:18;4.30;72.80
22006;DHT22;11167;46.988;15.470;2023-02-28T10:37:19;4.30;72.70
22006;DHT22;11167;46.988;15.470;2023-02-28T10:39:36;4.30;72.70
22006;DHT22;11167;46.988;15.470;2023-02-28T10:41:38;4.30;72.70
22006;DHT22;11167;46.988;15.470;2023-02-28T10:43:41;4.30;72.70
22006;DHT22;11167;46.988;15.470;2023-02-28T10:46:27;4.30;72.70
22006;DHT22;11167;46.988;15.470;2023-02-28T10:49:59;4.40;72.70
22006;DHT22;11167;46.988;15.470;2023-02-28T10:52:00;4.30;72.60
22006;DHT22;11167;46.988;15.470;2023-02-28T10:54:01;4.40;72.60
22006;DHT22;11167;46.988;15.470;2023-02-28T10:58:21;4.40;72.70
22006;DHT22;11167;46.988;15.470;2023-02-28T11:00:24;4.40;73.10
22006;DHT22;11167;46.988;15.470;2023-02-28T11:02:36;4.40;72.60
22006;DHT22;11167;46.988;15.470;2023-02-28T11:04:35;4.40;72.60
22006;DHT22;11167;46.988;15.470;2023-02-28T11:06:37;4.40;72.60
22006;DHT22;11167;46.988;15.470;2023-02-28T11:08:43;4.50;72.60
22006;DHT22;11167;46.988;15.470;2023-02-28T11:10:44;4.40;72.60
22006;DHT22;11167;46.988;15.470;2023-02-28T11:12:43;4.50;72.60
22006;DHT22;11167;46.988;15.470;2023-02-28T11:14:49;4.50;72.60
22006;DHT22;11167;46.988;15.470;2023-02-28T11:16:50;4.50;72.60
22006;DHT22;11167;46.988;15.470;2023-02-28T11:18:52;4.50;72.60
22006;DHT22;11167;46.988;15.470;2023-02-28T11:20:54;4.50;72.60
22006;DHT22;11167;46.988;15.470;2023-02-28T11:22:56;4.50;72.60
22006;DHT22;11167;46.988;15.470;2023-02-28T11:24:59;4.60;72.60
22006;DHT22;11167;46.988;15.470;2023-02-28T11:27:00;4.60;72.60
22006;DHT22;11167;46.988;15.470;2023-02-28T11:31:22;4.60;72.60
22006;DHT22;11167;46.988;15.470;2023-02-28T11:35:33;4.60;72.60
22006;DHT22;11167;46.988;15.470;2023-02-28T11:37:35;4.60;72.60
22006;DHT22;11167;46.988;15.470;2023-02-28T11:39:36;4.70;72.60
22006;DHT22;11167;46.988;15.470;2023-02-28T11:45:54;4.70;72.60
22006;DHT22;11167;46.988;15.470;2023-02-28T11:47:58;4.70;72.60
22006;DHT22;11167;46.988;15.470;2023-02-28T12:01:03;4.80;72.70
22006;DHT22;11167;46.988;15.470;2023-02-28T12:03:09;4.90;72.70
22006;DHT22;11167;46.988;15.470;2023-02-28T12:05:11;4.90;72.70
22006;DHT22;11167;46.988;15.470;2023-02-28T12:18:13;5.00;72.60
22006;DHT22;11167;46.988;15.470;2023-02-28T12:20:26;5.00;72.60
22006;DHT22;11167;46.988;15.470;2023-02-28T12:22:31;5.10;72.70
22006;DHT22;11167;46.988;15.470;2023-02-28T12:24:44;5.10;72.70
22006;DHT22;11167;46.988;15.470;2023-02-28T12:26:43;5.10;72.70
22006;DHT22;11167;46.988;15.470;2023-02-28T12:28:46;5.10;72.60
22006;DHT22;11167;46.988;15.470;2023-02-28T12:30:52;5.20;72.80
22006;DHT22;11167;46.988;15.470;2023-02-28T12:32:54;5.20;72.70
22006;DHT22;11167;46.988;15.470;2023-02-28T12:37:07;5.20;72.60
22006;DHT22;11167;46.988;15.470;2023-02-28T12:39:10;5.30;72.70
22006;DHT22;11167;46.988;15.470;2023-02-28T12:41:13;5.30;72.70
22006;DHT22;11167;46.988;15.470;2023-02-28T12:43:15;5.30;72.60
22006;DHT22;11167;46.988;15.470;2023-02-28T12:45:20;5.30;72.60
22006;DHT22;11167;46.988;15.470;2023-02-28T12:47:23;5.30;72.50
22006;DHT22;11167;46.988;15.470;2023-02-28T12:49:34;5.40;72.60
22006;DHT22;11167;46.988;15.470;2023-02-28T12:51:36;5.40;72.60
22006;DHT22;11167;46.988;15.470;2023-02-28T12:59:49;5.50;72.80
22006;DHT22;11167;46.988;15.470;2023-02-28T13:02:00;5.50;72.70
22006;DHT22;11167;46.988;15.470;2023-02-28T13:10:18;5.60;72.70
22006;DHT22;11167;46.988;15.470;2023-02-28T13:12:20;5.60;72.60
22006;DHT22;11167;46.988;15.470;2023-02-28T13:14:26;5.70;72.70
22006;DHT22;11167;46.988;15.470;2023-02-28T13:18:47;5.70;72.70
22006;DHT22;11167;46.988;15.470;2023-02-28T13:20:49;5.70;72.70
22006;DHT22;11167;46.988;15.470;2023-02-28T13:22:52;5.80;72.80
22006;DHT22;11167;46.988;15.470;2023-02-28T13:24:54;5.80;72.70
22006;DHT22;11167;46.988;15.470;2023-02-28T13:29:21;5.90;72.70
22006;DHT22;11167;46.988;15.470;2023-02-28T13:31:06;5.90;72.60
22006;DHT22;11167;46.988;15.470;2023-02-28T13:35:35;5.90;72.60
22006;DHT22;11167;46.988;15.470;2023-02-28T13:37:43;6.00;72.60
22006;DHT22;11167;46.988;15.470;2023-02-28T13:39:45;6.00;72.60
22006;DHT22;11167;46.988;15.470;2023-02-28T13:41:46;6.00;72.60
22006;DHT22;11167;46.988;15.470;2023-02-28T13:46:08;6.10;72.60
22006;DHT22;11167;46.988;15.470;2023-02-28T13:48:19;6.10;72.70
22006;DHT22;11167;46.988;15.470;2023-02-28T13:52:21;6.20;72.70
22006;DHT22;11167;46.988;15.470;2023-02-28T13:56:41;6.20;72.80
22006;DHT22;11167;46.988;15.470;2023-02-28T14:05:15;6.40;72.70
22006;DHT22;11167;46.988;15.470;2023-02-28T14:07:18;6.40;72.80
22006;DHT22;11167;46.988;15.470;2023-02-28T14:09:30;6.50;73.00
22006;DHT22;11167;46.988;15.470;2023-02-28T14:11:32;6.50;72.90
22006;DHT22;11167;46.988;15.470;2023-02-28T14:13:43;6.50;72.80
22006;DHT22;11167;46.988;15.470;2023-02-28T14:15:46;6.60;72.80
22006;DHT22;11167;46.988;15.470;2023-02-28T14:17:50;6.60;72.80
22006;DHT22;11167;46.988;15.470;2023-02-28T14:19:50;6.70;72.80
22006;DHT22;11167;46.988;15.470;2023-02-28T14:22:04;6.70;72.80
22006;DHT22;11167;46.988;15.470;2023-02-28T14:26:18;6.80;72.80
22006;DHT22;11167;46.988;15.470;2023-02-28T14:36:58;7.00;73.10
22006;DHT22;11167;46.988;15.470;2023-02-28T14:39:03;7.00;72.80
22006;DHT22;11167;46.988;15.470;2023-02-28T14:41:04;7.10;73.60
22006;DHT22;11167;46.988;15.470;2023-02-28T14:43:18;7.20;72.90
22006;DHT22;11167;46.988;15.470;2023-02-28T14:45:19;7.20;72.90
22006;DHT22;11167;46.988;15.470;2023-02-28T14:47:20;7.30;73.00
22006;DHT22;11167;46.988;15.470;2023-02-28T14:51:29;7.40;73.10
22006;DHT22;11167;46.988;15.470;2023-02-28T14:53:35;7.40;73.10
22006;DHT22;11167;46.988;15.470;2023-02-28T14:55:34;7.50;73.30